createdAt,value
2018-07-02T00:02:09.613Z,18.10
2018-07-02T00:04:37.055Z,18.00
2018-07-02T00:07:15.515Z,18.00
2018-07-02T00:09:43.641Z,17.90
2018-07-02T00:12:11.291Z,17.90
2018-07-02T00:14:38.747Z,17.80
2018-07-02T00:17:06.195Z,17.70
2018-07-02T00:19:33.595Z,17.70
2018-07-02T00:22:01.136Z,17.70
2018-07-02T00:24:28.709Z,17.70
2018-07-02T00:26:56.275Z,17.60
2018-07-02T00:29:23.738Z,17.60
2018-07-02T00:31:51.146Z,17.50
2018-07-02T00:34:18.495Z,17.60
2018-07-02T00:36:45.943Z,17.50
2018-07-02T00:39:13.394Z,17.40
2018-07-02T00:41:42.084Z,17.40
2018-07-02T00:44:09.555Z,17.40
2018-07-02T00:46:37.245Z,17.40
2018-07-02T00:49:04.921Z,17.30
2018-07-02T00:51:32.566Z,17.20
2018-07-02T00:54:00.036Z,17.20
2018-07-02T00:56:27.467Z,17.20
2018-07-02T00:58:54.933Z,17.10
2018-07-02T01:01:25.529Z,17.10
2018-07-02T01:03:53.541Z,17.00
2018-07-02T01:06:21.142Z,17.00
2018-07-02T01:08:48.629Z,17.00
2018-07-02T01:11:16.165Z,16.90
2018-07-02T01:13:43.639Z,16.90
2018-07-02T01:16:11.140Z,16.90
2018-07-02T01:18:38.511Z,16.80
2018-07-02T01:21:06.031Z,16.80
2018-07-02T01:23:33.531Z,16.80
2018-07-02T01:26:00.983Z,16.70
2018-07-02T01:28:28.472Z,16.70
2018-07-02T01:30:55.919Z,16.70
2018-07-02T01:33:23.363Z,16.70
2018-07-02T01:35:50.809Z,16.60
2018-07-02T01:50:09.656Z,16.40
2018-07-02T01:52:37.170Z,16.30
2018-07-02T01:55:04.615Z,16.20
2018-07-02T01:57:32.048Z,16.20
2018-07-02T01:59:59.543Z,16.20
2018-07-02T02:02:26.935Z,16.20
2018-07-02T02:04:54.386Z,16.10
2018-07-02T02:07:22.127Z,16.10
2018-07-02T02:09:49.689Z,16.00
2018-07-02T02:12:17.123Z,15.90
2018-07-02T02:14:44.585Z,15.90
2018-07-02T02:17:12.029Z,15.90
2018-07-02T02:19:39.499Z,15.80
2018-07-02T02:22:07.511Z,15.80
2018-07-02T02:24:34.996Z,15.70
2018-07-02T02:27:02.452Z,15.70
2018-07-02T02:29:30.031Z,15.60
2018-07-02T02:31:57.511Z,15.60
2018-07-02T02:34:24.982Z,15.60
2018-07-02T02:36:52.724Z,15.60
2018-07-02T02:39:20.194Z,15.60
2018-07-02T02:41:47.702Z,15.60
2018-07-02T02:44:15.127Z,15.60
2018-07-02T02:46:42.591Z,15.50
2018-07-02T02:49:10.028Z,15.50
2018-07-02T02:51:37.455Z,15.50
2018-07-02T02:54:04.964Z,15.30
2018-07-02T02:56:32.394Z,15.40
2018-07-02T02:58:59.804Z,15.30
2018-07-02T03:01:27.216Z,15.30
2018-07-02T03:03:54.660Z,15.30
2018-07-02T03:06:23.590Z,15.30
2018-07-02T03:08:51.927Z,15.30
2018-07-02T03:11:19.355Z,15.30
2018-07-02T03:13:46.813Z,15.30
2018-07-02T03:16:14.243Z,15.40
2018-07-02T03:18:42.040Z,15.40
2018-07-02T03:21:10.759Z,15.40
2018-07-02T03:23:38.279Z,15.30
2018-07-02T03:26:06.109Z,15.30
2018-07-02T03:28:33.560Z,15.30
2018-07-02T03:31:00.968Z,15.40
2018-07-02T03:33:28.520Z,15.30
2018-07-02T03:35:55.955Z,15.30
2018-07-02T03:38:23.372Z,15.30
2018-07-02T03:40:50.891Z,15.30
2018-07-02T03:43:18.376Z,15.30
2018-07-02T03:45:45.851Z,15.30
2018-07-02T03:48:14.957Z,15.30
2018-07-02T03:50:42.420Z,15.30
2018-07-02T03:53:09.873Z,15.30
2018-07-02T03:55:38.295Z,15.30
2018-07-02T03:58:05.488Z,15.30
2018-07-02T04:00:32.768Z,15.20
2018-07-02T04:02:59.983Z,15.20
2018-07-02T04:05:27.258Z,15.30
2018-07-02T04:07:54.463Z,15.30
2018-07-02T04:10:21.900Z,15.20
2018-07-02T04:12:49.117Z,15.30
2018-07-02T04:15:16.327Z,15.30
2018-07-02T04:17:43.562Z,15.30
2018-07-02T04:20:10.771Z,15.20
2018-07-02T04:22:38.011Z,15.20
2018-07-02T04:25:05.255Z,15.10
2018-07-02T04:27:32.625Z,15.20
2018-07-02T04:29:59.832Z,15.20
2018-07-02T04:32:30.439Z,15.10
2018-07-02T04:34:57.667Z,15.10
2018-07-02T04:37:24.911Z,15.20
2018-07-02T04:39:55.346Z,15.30
2018-07-02T04:42:22.584Z,15.30
2018-07-02T04:44:49.809Z,15.40
2018-07-02T04:47:17.040Z,15.60
2018-07-02T04:49:44.312Z,15.70
2018-07-02T04:52:11.514Z,16.40
2018-07-02T04:54:38.747Z,17.40
2018-07-02T04:57:05.986Z,18.60
2018-07-02T04:59:33.289Z,19.80
2018-07-02T05:02:00.498Z,20.70
2018-07-02T05:04:27.747Z,21.50
2018-07-02T05:06:55.142Z,21.90
2018-07-02T05:09:22.372Z,22.10
2018-07-02T05:11:49.735Z,22.10
2018-07-02T05:14:16.935Z,22.00
2018-07-02T05:16:44.189Z,22.20
2018-07-02T05:19:11.411Z,22.50
2018-07-02T05:21:38.640Z,22.70
2018-07-02T05:24:05.857Z,22.70
2018-07-02T05:26:33.042Z,22.60
2018-07-02T05:29:00.277Z,22.70
2018-07-02T05:31:27.523Z,22.80
2018-07-02T05:33:54.736Z,22.80
2018-07-02T05:36:21.935Z,22.60
2018-07-02T05:38:49.181Z,22.10
2018-07-02T05:41:16.629Z,21.60
2018-07-02T05:43:43.839Z,21.10
2018-07-02T05:46:11.108Z,20.70
2018-07-02T05:48:38.382Z,20.40
2018-07-02T05:51:05.621Z,20.10
2018-07-02T05:53:32.852Z,19.80
2018-07-02T05:56:00.062Z,19.50
2018-07-02T05:58:27.292Z,19.30
2018-07-02T06:00:54.573Z,19.10
2018-07-02T06:03:21.900Z,19.00
2018-07-02T06:05:49.108Z,19.00
2018-07-02T06:08:16.315Z,18.90
2018-07-02T06:10:43.517Z,18.90
2018-07-02T06:13:11.802Z,18.90
2018-07-02T06:15:40.542Z,18.70
2018-07-02T06:18:07.876Z,18.80
2018-07-02T06:20:35.270Z,18.80
2018-07-02T06:23:02.552Z,18.70
2018-07-02T06:25:29.779Z,18.80
2018-07-02T06:27:56.976Z,18.80
2018-07-02T06:30:24.429Z,18.80
2018-07-02T06:32:52.015Z,18.80
2018-07-02T06:35:19.323Z,18.90
2018-07-02T06:37:46.515Z,19.10
2018-07-02T06:40:13.733Z,19.20
2018-07-02T06:42:41.121Z,19.30
2018-07-02T06:45:08.364Z,19.40
2018-07-02T06:47:39.999Z,19.40
2018-07-02T06:50:07.239Z,19.50
2018-07-02T06:52:34.516Z,19.70
2018-07-02T06:55:01.750Z,19.80
2018-07-02T06:57:29.033Z,20.00
2018-07-02T06:59:56.352Z,19.90
2018-07-02T07:02:28.074Z,20.10
2018-07-02T07:04:55.335Z,20.30
2018-07-02T07:07:22.580Z,20.30
2018-07-02T07:09:49.863Z,20.40
2018-07-02T07:12:17.060Z,20.50
2018-07-02T07:14:44.591Z,20.50
2018-07-02T07:17:15.364Z,20.50
2018-07-02T07:19:42.619Z,20.50
2018-07-02T07:22:10.037Z,20.70
2018-07-02T07:24:37.315Z,20.80
2018-07-02T07:27:04.604Z,20.80
2018-07-02T07:29:31.844Z,20.90
2018-07-02T07:32:00.904Z,21.00
2018-07-02T07:34:28.115Z,21.10
2018-07-02T07:36:55.355Z,21.20
2018-07-02T07:39:22.620Z,21.40
2018-07-02T07:41:49.919Z,21.40
2018-07-02T07:44:17.115Z,21.40
2018-07-02T07:46:46.371Z,21.50
2018-07-02T07:49:13.568Z,21.70
2018-07-02T07:51:40.792Z,21.70
2018-07-02T07:54:08.501Z,21.80
2018-07-02T07:56:35.889Z,21.90
2018-07-02T07:59:03.252Z,22.00
2018-07-02T08:01:32.255Z,22.10
2018-07-02T08:03:59.574Z,22.20
2018-07-02T08:06:26.812Z,22.30
2018-07-02T08:08:54.106Z,22.50
2018-07-02T08:11:21.662Z,22.70
2018-07-02T08:13:53.863Z,22.80
2018-07-02T08:16:21.312Z,22.90
2018-07-02T08:18:48.989Z,23.00
2018-07-02T08:21:16.383Z,23.00
2018-07-02T08:23:43.923Z,23.00
2018-07-02T08:26:11.448Z,23.10
2018-07-02T08:31:07.387Z,23.20
2018-07-02T08:33:34.828Z,23.20
2018-07-02T08:36:02.291Z,23.10
2018-07-02T08:38:29.779Z,23.10
2018-07-02T08:40:59.767Z,23.20
2018-07-02T08:43:29.141Z,23.20
2018-07-02T08:45:56.613Z,23.20
2018-07-02T08:48:24.055Z,23.10
2018-07-02T08:50:51.503Z,23.10
2018-07-02T08:53:18.989Z,23.20
2018-07-02T08:55:46.429Z,23.20
2018-07-02T08:58:15.111Z,23.40
2018-07-02T09:00:42.569Z,23.50
2018-07-02T09:03:10.049Z,23.50
2018-07-02T09:05:37.415Z,23.50
2018-07-02T09:08:04.977Z,23.40
2018-07-02T09:10:32.510Z,23.50
2018-07-02T09:13:02.975Z,23.60
2018-07-02T09:15:30.528Z,23.60
2018-07-02T09:17:57.953Z,23.80
2018-07-02T09:20:25.407Z,23.80
2018-07-02T09:22:52.927Z,23.90
2018-07-02T09:25:20.446Z,23.90
2018-07-02T09:27:51.452Z,23.90
2018-07-02T09:30:18.919Z,23.90
2018-07-02T09:32:46.349Z,23.80
2018-07-02T09:35:13.820Z,23.90
2018-07-02T09:37:41.220Z,23.80
2018-07-02T09:40:08.732Z,23.80
2018-07-02T09:42:38.552Z,24.10
2018-07-02T09:45:06.036Z,24.20
2018-07-02T09:47:33.459Z,24.40
2018-07-02T09:50:00.891Z,24.60
2018-07-02T09:52:28.299Z,24.60
2018-07-02T09:54:55.916Z,24.70
2018-07-02T09:57:25.519Z,24.80
2018-07-02T09:59:52.959Z,25.00
2018-07-02T10:02:20.420Z,25.20
2018-07-02T10:04:47.839Z,25.50
2018-07-02T10:07:15.289Z,25.70
2018-07-02T10:09:42.715Z,25.50
2018-07-02T10:12:14.504Z,25.70
2018-07-02T10:14:41.995Z,26.10
2018-07-02T10:17:09.519Z,26.20
2018-07-02T10:19:36.939Z,26.40
2018-07-02T10:22:04.401Z,26.80
2018-07-02T10:24:31.860Z,26.80
2018-07-02T10:26:59.303Z,27.00
2018-07-02T10:29:28.314Z,27.20
2018-07-02T10:31:55.772Z,27.10
2018-07-02T10:34:23.306Z,27.40
2018-07-02T10:36:50.855Z,27.60
2018-07-02T10:39:18.331Z,27.90
2018-07-02T10:41:45.755Z,28.20
2018-07-02T10:44:16.614Z,28.20
2018-07-02T10:46:44.056Z,28.40
2018-07-02T10:49:11.539Z,28.80
2018-07-02T10:51:39.276Z,29.00
2018-07-02T10:54:06.668Z,28.60
2018-07-02T10:56:34.114Z,28.60
2018-07-02T10:59:05.116Z,28.60
2018-07-02T11:01:32.562Z,28.70
2018-07-02T11:06:27.475Z,29.00
2018-07-02T11:08:54.889Z,29.20
2018-07-02T11:13:54.772Z,29.10
2018-07-02T11:16:22.208Z,28.90
2018-07-02T11:18:49.919Z,29.10
2018-07-02T11:21:17.368Z,29.00
2018-07-02T11:23:44.843Z,28.90
2018-07-02T11:26:15.459Z,28.70
2018-07-02T11:28:42.903Z,29.00
2018-07-02T11:31:10.487Z,29.20
2018-07-02T11:33:37.911Z,29.40
2018-07-02T11:36:05.359Z,29.50
2018-07-02T11:38:36.670Z,29.70
2018-07-02T11:41:04.596Z,29.60
2018-07-02T11:43:32.072Z,29.70
2018-07-02T11:45:59.571Z,29.90
2018-07-02T11:48:27.109Z,29.90
2018-07-02T11:50:54.628Z,29.90
2018-07-02T11:53:23.587Z,30.00
2018-07-02T11:55:50.995Z,30.20
2018-07-02T11:58:18.603Z,30.30
2018-07-02T12:00:46.135Z,30.30
2018-07-02T12:03:13.579Z,30.00
2018-07-02T12:05:46.112Z,30.00
2018-07-02T12:08:13.883Z,30.20
2018-07-02T12:10:41.508Z,30.00
2018-07-02T12:13:08.931Z,30.10
2018-07-02T12:15:36.555Z,30.30
2018-07-02T12:18:08.976Z,30.30
2018-07-02T12:20:36.844Z,30.30
2018-07-02T12:23:04.403Z,30.20
2018-07-02T12:25:31.840Z,30.10
2018-07-02T12:27:59.304Z,29.80
2018-07-02T12:30:26.823Z,29.70
2018-07-02T12:32:54.269Z,29.70
2018-07-02T12:37:51.343Z,29.30
2018-07-02T12:40:18.867Z,29.30
2018-07-02T12:42:46.308Z,29.40
2018-07-02T12:45:13.739Z,29.50
2018-07-02T12:47:42.817Z,29.50
2018-07-02T12:50:13.315Z,29.50
2018-07-02T12:52:40.799Z,29.30
2018-07-02T12:55:08.240Z,29.30
2018-07-02T12:57:35.671Z,29.50
2018-07-02T13:00:03.388Z,29.70
2018-07-02T13:02:30.822Z,30.00
2018-07-02T13:04:58.235Z,30.30
2018-07-02T13:07:25.835Z,30.20
2018-07-02T13:09:53.277Z,30.30
2018-07-02T13:12:20.875Z,30.40
2018-07-02T13:14:48.339Z,30.30
2018-07-02T13:17:15.780Z,30.30
2018-07-02T13:19:44.847Z,30.50
2018-07-02T13:22:12.321Z,30.70
2018-07-02T13:24:39.832Z,30.80
2018-07-02T13:27:07.256Z,30.80
2018-07-02T13:29:34.686Z,30.90
2018-07-02T13:32:02.175Z,30.80
2018-07-02T13:34:29.691Z,30.70
2018-07-02T13:36:59.287Z,30.30
2018-07-02T13:39:26.719Z,30.40
2018-07-02T13:41:54.183Z,30.50
2018-07-02T13:44:21.687Z,30.70
2018-07-02T13:46:49.080Z,30.70
2018-07-02T13:49:16.525Z,30.60
2018-07-02T13:51:43.942Z,30.60
2018-07-02T13:54:11.351Z,30.70
2018-07-02T14:01:35.348Z,30.60
2018-07-02T14:04:02.779Z,30.50
2018-07-02T14:06:30.293Z,30.40
2018-07-02T14:08:58.663Z,30.40
2018-07-02T14:11:26.409Z,30.40
2018-07-02T14:13:54.111Z,30.50
2018-07-02T14:16:27.664Z,30.50
2018-07-02T14:18:55.096Z,30.40
2018-07-02T14:21:22.604Z,30.10
2018-07-02T14:23:50.032Z,30.10
2018-07-02T14:26:17.482Z,30.00
2018-07-02T14:28:45.192Z,30.10
2018-07-02T14:31:12.651Z,30.20
2018-07-02T14:33:40.092Z,30.10
2018-07-02T14:36:07.531Z,30.00
2018-07-02T14:38:35.056Z,29.90
2018-07-02T14:41:02.935Z,29.90
2018-07-02T14:43:30.451Z,30.00
2018-07-02T14:45:58.276Z,30.10
2018-07-02T14:48:25.831Z,30.20
2018-07-02T14:50:53.311Z,30.20
2018-07-02T14:53:20.773Z,30.30
2018-07-02T14:55:48.187Z,30.40
2018-07-02T14:58:15.608Z,30.30
2018-07-02T15:00:43.654Z,30.30
2018-07-02T15:03:11.076Z,30.30
2018-07-02T15:05:38.459Z,30.20
2018-07-02T15:08:05.895Z,30.20
2018-07-02T15:10:33.363Z,30.20
2018-07-02T15:13:00.831Z,30.20
2018-07-02T15:15:28.330Z,30.10
2018-07-02T15:17:55.716Z,30.00
2018-07-02T15:22:54.257Z,29.90
2018-07-02T15:25:22.807Z,29.80
2018-07-02T15:27:50.251Z,29.70
2018-07-02T15:30:17.716Z,29.60
2018-07-02T15:32:45.167Z,29.60
2018-07-02T15:35:12.615Z,29.40
2018-07-02T15:37:41.719Z,29.50
2018-07-02T15:40:09.154Z,29.40
2018-07-02T15:42:36.610Z,29.40
2018-07-02T15:45:04.139Z,29.30
2018-07-02T15:47:31.763Z,29.40
2018-07-02T15:49:59.293Z,29.50
2018-07-02T15:52:26.790Z,29.30
2018-07-02T15:54:54.338Z,29.30
2018-07-02T15:57:21.940Z,29.10
2018-07-02T15:59:49.339Z,28.80
2018-07-02T16:02:16.739Z,28.60
2018-07-02T16:04:44.176Z,28.50
2018-07-02T16:07:15.626Z,28.50
2018-07-02T16:09:43.079Z,28.50
2018-07-02T16:12:10.392Z,28.50
2018-07-02T16:14:38.176Z,28.50
2018-07-02T16:17:05.890Z,28.30
2018-07-02T16:19:33.323Z,28.20
2018-07-02T16:22:00.767Z,28.10
2018-07-02T16:24:28.426Z,27.90
2018-07-02T16:26:56.091Z,27.90
2018-07-02T16:31:51.007Z,27.80
2018-07-02T16:34:18.628Z,27.80
2018-07-02T16:36:46.115Z,27.80
2018-07-02T16:39:13.911Z,27.70
2018-07-02T16:41:41.350Z,27.70
2018-07-02T16:44:08.835Z,27.60
2018-07-02T16:46:36.279Z,27.50
2018-07-02T16:49:03.971Z,27.40
2018-07-02T16:53:59.226Z,27.30
2018-07-02T16:56:27.096Z,27.30
2018-07-02T16:58:54.541Z,27.20
2018-07-02T17:01:24.666Z,27.20
2018-07-02T17:03:52.144Z,27.30
2018-07-02T17:06:19.730Z,27.30
2018-07-02T17:08:47.134Z,27.20
2018-07-02T17:11:19.378Z,27.20
2018-07-02T17:13:46.866Z,27.20
2018-07-02T17:16:16.383Z,27.30
2018-07-02T17:18:43.912Z,27.10
2018-07-02T17:21:11.397Z,27.20
2018-07-02T17:23:39.552Z,27.20
2018-07-02T17:26:07.040Z,27.20
2018-07-02T17:28:34.644Z,27.20
2018-07-02T17:31:02.583Z,27.10
2018-07-02T17:35:58.041Z,27.00
2018-07-02T17:38:25.515Z,26.90
2018-07-02T17:40:52.965Z,26.80
2018-07-02T17:43:20.499Z,26.80
2018-07-02T17:45:49.234Z,26.80
2018-07-02T17:48:16.684Z,26.70
2018-07-02T17:50:49.300Z,26.60
2018-07-02T17:53:16.819Z,26.70
2018-07-02T17:55:44.603Z,26.60
2018-07-02T17:58:12.055Z,26.60
2018-07-02T18:00:42.599Z,26.60
2018-07-02T18:03:10.069Z,26.60
2018-07-02T18:05:37.510Z,26.60
2018-07-02T18:08:05.457Z,26.60
2018-07-02T18:10:33.076Z,26.50
2018-07-02T18:13:00.616Z,26.50
2018-07-02T18:15:28.167Z,26.50
2018-07-02T18:17:55.627Z,26.50
2018-07-02T18:20:23.053Z,26.40
2018-07-02T18:22:54.477Z,26.30
2018-07-02T18:25:21.994Z,26.20
2018-07-02T18:27:49.665Z,26.10
2018-07-02T18:30:17.199Z,26.20
2018-07-02T18:32:44.800Z,26.00
2018-07-02T18:35:12.476Z,25.90
2018-07-02T18:37:39.903Z,25.90
2018-07-02T18:40:07.741Z,25.90
2018-07-02T18:42:35.192Z,25.90
2018-07-02T18:45:02.685Z,25.90
2018-07-02T18:47:30.259Z,25.90
2018-07-02T18:49:57.730Z,25.80
2018-07-02T18:52:26.943Z,25.70
2018-07-02T18:54:54.331Z,25.50
2018-07-02T18:57:21.864Z,25.50
2018-07-02T18:59:49.399Z,25.50
2018-07-02T19:02:16.841Z,25.40
2018-07-02T19:04:44.242Z,25.40
2018-07-02T19:07:11.976Z,25.20
2018-07-02T19:09:39.425Z,25.20
2018-07-02T19:12:06.884Z,25.10
2018-07-02T19:14:34.309Z,25.10
2018-07-02T19:17:01.808Z,25.00
2018-07-02T19:19:29.313Z,25.00
2018-07-02T19:21:56.773Z,25.00
2018-07-02T19:24:26.340Z,24.90
2018-07-02T19:26:53.938Z,24.80
2018-07-02T19:29:21.450Z,24.60
2018-07-02T19:31:48.909Z,24.60
2018-07-02T19:34:16.358Z,24.60
2018-07-02T19:36:43.838Z,24.40
2018-07-02T19:39:12.915Z,24.40
2018-07-02T19:41:40.355Z,24.30
2018-07-02T19:44:08.394Z,24.30
2018-07-02T19:46:35.863Z,24.20
2018-07-02T19:49:06.459Z,24.10
2018-07-02T19:51:35.524Z,24.00
2018-07-02T19:54:03.083Z,23.90
2018-07-02T19:56:30.661Z,23.80
2018-07-02T19:58:58.091Z,23.80
2018-07-02T20:01:26.487Z,23.80
2018-07-02T20:03:53.902Z,23.70
2018-07-02T20:06:21.724Z,23.60
2018-07-02T20:08:49.210Z,23.60
2018-07-02T20:11:16.775Z,23.50
2018-07-02T20:13:44.336Z,23.50
2018-07-02T20:16:11.852Z,23.40
2018-07-02T20:18:39.504Z,23.40
2018-07-02T20:21:06.940Z,23.40
2018-07-02T20:23:35.880Z,23.30
2018-07-02T20:26:03.322Z,23.30
2018-07-02T20:28:30.924Z,23.30
2018-07-02T20:30:58.441Z,23.20
2018-07-02T20:33:25.964Z,23.20
2018-07-02T20:35:53.376Z,23.10
2018-07-02T20:38:21.686Z,23.00
2018-07-02T20:40:49.148Z,22.90
2018-07-02T20:43:16.589Z,22.80
2018-07-02T20:45:44.089Z,22.80
2018-07-02T20:48:15.992Z,22.70
2018-07-02T20:50:43.453Z,22.60
2018-07-02T20:53:10.955Z,22.60
2018-07-02T20:55:38.417Z,22.50
2018-07-02T20:58:05.873Z,22.40
2018-07-02T21:00:33.565Z,22.30
2018-07-02T21:03:02.183Z,22.30
2018-07-02T21:05:30.143Z,22.20
2018-07-02T21:07:57.704Z,22.30
2018-07-02T21:10:25.168Z,22.10
2018-07-02T21:12:54.003Z,22.10
2018-07-02T21:15:21.572Z,22.10
2018-07-02T21:17:49.183Z,22.00
2018-07-02T21:20:16.639Z,22.00
2018-07-02T21:22:44.143Z,21.90
2018-07-02T21:25:11.574Z,22.00
2018-07-02T21:27:39.120Z,22.00
2018-07-02T21:30:07.500Z,21.90
2018-07-02T21:32:35.414Z,21.90
2018-07-02T21:35:02.995Z,21.90
2018-07-02T21:37:30.905Z,21.80
2018-07-02T21:39:58.351Z,21.80
2018-07-02T21:42:25.785Z,21.80
2018-07-02T21:44:53.255Z,21.70
2018-07-02T21:47:21.039Z,21.70
2018-07-02T21:49:48.542Z,21.60
2018-07-02T21:52:15.975Z,21.60
2018-07-02T21:54:43.516Z,21.50
2018-07-02T21:57:11.181Z,21.50
2018-07-02T21:59:38.732Z,21.40
2018-07-02T22:02:06.218Z,21.30
2018-07-02T22:04:33.704Z,21.30
2018-07-02T22:07:01.126Z,21.20
2018-07-02T22:09:28.724Z,21.20
2018-07-02T22:11:56.126Z,21.10
2018-07-02T22:14:23.605Z,21.10
2018-07-02T22:16:51.520Z,21.00
2018-07-02T22:19:18.964Z,20.90
2018-07-02T22:21:46.411Z,20.90
2018-07-02T22:24:13.883Z,20.80
2018-07-02T22:26:41.398Z,20.80
2018-07-02T22:29:08.828Z,20.70
2018-07-02T22:31:36.333Z,20.70
2018-07-02T22:34:03.840Z,20.60
2018-07-02T22:36:31.455Z,20.40
2018-07-02T22:38:58.941Z,20.40
2018-07-02T22:41:27.051Z,20.40
2018-07-02T22:43:54.544Z,20.40
2018-07-02T22:46:22.119Z,20.30
2018-07-02T22:48:49.619Z,20.30
2018-07-02T22:51:17.144Z,20.20
2018-07-02T22:53:44.680Z,20.20
2018-07-02T22:56:12.216Z,20.10
2018-07-02T22:58:39.679Z,20.00
2018-07-02T23:01:07.638Z,20.00
2018-07-02T23:03:35.184Z,19.90
2018-07-02T23:06:02.904Z,19.80
2018-07-02T23:08:30.358Z,19.70
2018-07-02T23:10:57.871Z,19.60
2018-07-02T23:13:25.602Z,19.50
2018-07-02T23:15:58.998Z,19.40
2018-07-02T23:18:26.592Z,19.30
2018-07-02T23:20:54.093Z,19.30
2018-07-02T23:23:21.608Z,19.20
2018-07-02T23:25:49.084Z,19.10
2018-07-02T23:28:16.527Z,19.00
2018-07-02T23:30:44.022Z,18.90
2018-07-02T23:33:11.439Z,18.90
2018-07-02T23:35:40.350Z,18.80
2018-07-02T23:38:07.798Z,18.70
2018-07-02T23:40:35.227Z,18.60
2018-07-02T23:43:02.639Z,18.50
2018-07-02T23:45:30.151Z,18.50
2018-07-02T23:47:57.569Z,18.40
2018-07-02T23:50:25.018Z,18.30
2018-07-02T23:55:19.895Z,18.30
2018-07-02T23:57:47.372Z,18.30
